sensor_id;sensor_type;location;lat;lon;timestamp;P1;durP1;ratioP1;P2;durP2;ratioP2
48859;SDS011;34679;51.436;-2.518;2023-04-01T00:00:48;32.03;;;7.72;;
48859;SDS011;34679;51.436;-2.518;2023-04-01T00:03:14;31.70;;;6.63;;
48859;SDS011;34679;51.436;-2.518;2023-04-01T00:05:40;38.88;;;6.05;;
48859;SDS011;34679;51.436;-2.518;2023-04-01T00:08:06;27.58;;;6.47;;
48859;SDS011;34679;51.436;-2.518;2023-04-01T00:10:31;33.08;;;6.50;;
48859;SDS011;34679;51.436;-2.518;2023-04-01T00:12:57;35.63;;;6.15;;
48859;SDS011;34679;51.436;-2.518;2023-04-01T00:15:22;34.25;;;6.70;;
48859;SDS011;34679;51.436;-2.518;2023-04-01T00:17:48;31.70;;;6.00;;
48859;SDS011;34679;51.436;-2.518;2023-04-01T00:20:14;30.00;;;6.15;;
48859;SDS011;34679;51.436;-2.518;2023-04-01T00:22:40;35.10;;;6.10;;
48859;SDS011;34679;51.436;-2.518;2023-04-01T00:25:06;39.60;;;8.10;;
48859;SDS011;34679;51.436;-2.518;2023-04-01T00:27:32;37.60;;;7.05;;
48859;SDS011;34679;51.436;-2.518;2023-04-01T00:29:58;26.35;;;6.47;;
48859;SDS011;34679;51.436;-2.518;2023-04-01T00:32:24;31.10;;;6.20;;
48859;SDS011;34679;51.436;-2.518;2023-04-01T00:34:51;32.42;;;6.72;;
48859;SDS011;34679;51.436;-2.518;2023-04-01T00:37:18;27.45;;;6.75;;
48859;SDS011;34679;51.436;-2.518;2023-04-01T00:39:44;35.72;;;7.35;;
48859;SDS011;34679;51.436;-2.518;2023-04-01T00:42:11;29.08;;;5.80;;
48859;SDS011;34679;51.436;-2.518;2023-04-01T00:44:37;30.10;;;5.63;;
48859;SDS011;34679;51.436;-2.518;2023-04-01T00:47:03;37.42;;;6.63;;
48859;SDS011;34679;51.436;-2.518;2023-04-01T00:49:30;28.38;;;5.22;;
48859;SDS011;34679;51.436;-2.518;2023-04-01T00:52:10;22.70;;;5.75;;
48859;SDS011;34679;51.436;-2.518;2023-04-01T00:54:39;36.95;;;6.70;;
48859;SDS011;34679;51.436;-2.518;2023-04-01T00:57:22;23.95;;;4.88;;
48859;SDS011;34679;51.436;-2.518;2023-04-01T00:59:53;27.13;;;5.45;;
48859;SDS011;34679;51.436;-2.518;2023-04-01T01:02:20;24.02;;;5.38;;
48859;SDS011;34679;51.436;-2.518;2023-04-01T01:04:46;26.40;;;5.80;;
48859;SDS011;34679;51.436;-2.518;2023-04-01T01:12:22;21.90;;;6.28;;
48859;SDS011;34679;51.436;-2.518;2023-04-01T01:15:06;28.70;;;6.03;;
48859;SDS011;34679;51.436;-2.518;2023-04-01T01:37:09;27.35;;;6.55;;
48859;SDS011;34679;51.436;-2.518;2023-04-01T01:39:38;12.13;;;5.05;;
48859;SDS011;34679;51.436;-2.518;2023-04-01T01:42:07;24.60;;;7.47;;
48859;SDS011;34679;51.436;-2.518;2023-04-01T01:44:36;21.30;;;6.47;;
48859;SDS011;34679;51.436;-2.518;2023-04-01T01:47:03;22.13;;;5.85;;
48859;SDS011;34679;51.436;-2.518;2023-04-01T01:49:30;21.10;;;5.95;;
48859;SDS011;34679;51.436;-2.518;2023-04-01T01:51:58;29.40;;;6.75;;
48859;SDS011;34679;51.436;-2.518;2023-04-01T01:54:25;21.52;;;6.32;;
48859;SDS011;34679;51.436;-2.518;2023-04-01T01:56:51;24.60;;;6.60;;
48859;SDS011;34679;51.436;-2.518;2023-04-01T01:59:40;21.25;;;6.57;;
48859;SDS011;34679;51.436;-2.518;2023-04-01T02:02:08;18.45;;;6.55;;
48859;SDS011;34679;51.436;-2.518;2023-04-01T02:04:37;21.63;;;7.75;;
48859;SDS011;34679;51.436;-2.518;2023-04-01T02:07:08;34.38;;;6.47;;
48859;SDS011;34679;51.436;-2.518;2023-04-01T02:09:39;15.48;;;6.70;;
48859;SDS011;34679;51.436;-2.518;2023-04-01T02:12:08;33.22;;;7.90;;
48859;SDS011;34679;51.436;-2.518;2023-04-01T02:14:52;34.08;;;8.65;;
48859;SDS011;34679;51.436;-2.518;2023-04-01T02:17:27;28.90;;;8.10;;
48859;SDS011;34679;51.436;-2.518;2023-04-01T02:22:34;19.60;;;7.28;;
48859;SDS011;34679;51.436;-2.518;2023-04-01T02:25:07;26.08;;;7.10;;
48859;SDS011;34679;51.436;-2.518;2023-04-01T02:27:35;39.17;;;7.90;;
48859;SDS011;34679;51.436;-2.518;2023-04-01T02:30:01;33.47;;;6.85;;
48859;SDS011;34679;51.436;-2.518;2023-04-01T02:32:28;21.02;;;7.57;;
48859;SDS011;34679;51.436;-2.518;2023-04-01T02:34:56;27.15;;;7.75;;
48859;SDS011;34679;51.436;-2.518;2023-04-01T02:37:24;31.95;;;8.52;;
48859;SDS011;34679;51.436;-2.518;2023-04-01T02:39:49;20.45;;;7.90;;
48859;SDS011;34679;51.436;-2.518;2023-04-01T02:42:15;31.63;;;7.55;;
48859;SDS011;34679;51.436;-2.518;2023-04-01T02:44:41;30.08;;;9.07;;
48859;SDS011;34679;51.436;-2.518;2023-04-01T02:47:06;27.27;;;8.57;;
48859;SDS011;34679;51.436;-2.518;2023-04-01T02:49:32;24.10;;;7.95;;
48859;SDS011;34679;51.436;-2.518;2023-04-01T02:51:58;25.55;;;7.60;;
48859;SDS011;34679;51.436;-2.518;2023-04-01T02:54:23;27.20;;;9.00;;
48859;SDS011;34679;51.436;-2.518;2023-04-01T02:56:49;26.33;;;8.23;;
48859;SDS011;34679;51.436;-2.518;2023-04-01T02:59:15;24.20;;;8.80;;
48859;SDS011;34679;51.436;-2.518;2023-04-01T03:01:41;24.17;;;8.40;;
48859;SDS011;34679;51.436;-2.518;2023-04-01T03:04:06;27.92;;;8.63;;
48859;SDS011;34679;51.436;-2.518;2023-04-01T03:06:32;20.38;;;7.47;;
48859;SDS011;34679;51.436;-2.518;2023-04-01T03:08:58;21.27;;;6.45;;
48859;SDS011;34679;51.436;-2.518;2023-04-01T03:11:24;27.90;;;7.38;;
48859;SDS011;34679;51.436;-2.518;2023-04-01T03:13:51;27.30;;;7.18;;
48859;SDS011;34679;51.436;-2.518;2023-04-01T03:16:16;18.83;;;7.28;;
48859;SDS011;34679;51.436;-2.518;2023-04-01T03:18:42;14.55;;;7.00;;
48859;SDS011;34679;51.436;-2.518;2023-04-01T03:21:19;28.48;;;7.72;;
48859;SDS011;34679;51.436;-2.518;2023-04-01T03:23:46;20.63;;;6.28;;
48859;SDS011;34679;51.436;-2.518;2023-04-01T03:26:11;18.05;;;7.55;;
48859;SDS011;34679;51.436;-2.518;2023-04-01T03:28:38;24.90;;;6.93;;
48859;SDS011;34679;51.436;-2.518;2023-04-01T03:31:04;36.47;;;8.25;;
48859;SDS011;34679;51.436;-2.518;2023-04-01T03:33:30;22.13;;;6.72;;
48859;SDS011;34679;51.436;-2.518;2023-04-01T03:35:57;23.30;;;6.88;;
48859;SDS011;34679;51.436;-2.518;2023-04-01T03:38:22;22.90;;;7.20;;
48859;SDS011;34679;51.436;-2.518;2023-04-01T03:40:48;35.25;;;8.65;;
48859;SDS011;34679;51.436;-2.518;2023-04-01T03:43:14;28.67;;;7.55;;
48859;SDS011;34679;51.436;-2.518;2023-04-01T03:45:48;19.50;;;6.43;;
48859;SDS011;34679;51.436;-2.518;2023-04-01T03:48:15;22.13;;;6.78;;
48859;SDS011;34679;51.436;-2.518;2023-04-01T03:50:41;25.63;;;6.93;;
48859;SDS011;34679;51.436;-2.518;2023-04-01T03:53:07;18.42;;;6.35;;
48859;SDS011;34679;51.436;-2.518;2023-04-01T03:55:33;25.80;;;7.60;;
48859;SDS011;34679;51.436;-2.518;2023-04-01T03:58:00;22.67;;;7.40;;
48859;SDS011;34679;51.436;-2.518;2023-04-01T04:00:27;20.27;;;6.43;;
48859;SDS011;34679;51.436;-2.518;2023-04-01T04:02:53;21.60;;;6.78;;
48859;SDS011;34679;51.436;-2.518;2023-04-01T04:05:21;30.52;;;8.73;;
48859;SDS011;34679;51.436;-2.518;2023-04-01T04:07:48;14.52;;;7.00;;
48859;SDS011;34679;51.436;-2.518;2023-04-01T04:10:15;30.40;;;7.30;;
48859;SDS011;34679;51.436;-2.518;2023-04-01T04:12:41;15.88;;;6.10;;
48859;SDS011;34679;51.436;-2.518;2023-04-01T04:15:07;20.83;;;5.65;;
48859;SDS011;34679;51.436;-2.518;2023-04-01T04:17:33;24.30;;;5.95;;
48859;SDS011;34679;51.436;-2.518;2023-04-01T04:19:59;24.25;;;6.15;;
48859;SDS011;34679;51.436;-2.518;2023-04-01T04:22:24;17.70;;;6.03;;
48859;SDS011;34679;51.436;-2.518;2023-04-01T04:24:50;19.17;;;5.28;;
48859;SDS011;34679;51.436;-2.518;2023-04-01T04:27:16;15.57;;;5.65;;
48859;SDS011;34679;51.436;-2.518;2023-04-01T04:29:42;36.45;;;5.45;;
48859;SDS011;34679;51.436;-2.518;2023-04-01T04:32:08;19.50;;;5.30;;
48859;SDS011;34679;51.436;-2.518;2023-04-01T04:34:33;24.15;;;4.75;;
48859;SDS011;34679;51.436;-2.518;2023-04-01T04:36:59;25.13;;;5.03;;
48859;SDS011;34679;51.436;-2.518;2023-04-01T04:39:25;25.23;;;5.15;;
48859;SDS011;34679;51.436;-2.518;2023-04-01T04:41:50;17.50;;;5.55;;
48859;SDS011;34679;51.436;-2.518;2023-04-01T04:44:16;25.02;;;5.13;;
48859;SDS011;34679;51.436;-2.518;2023-04-01T04:46:42;18.88;;;4.05;;
48859;SDS011;34679;51.436;-2.518;2023-04-01T04:49:07;18.77;;;5.00;;
48859;SDS011;34679;51.436;-2.518;2023-04-01T04:51:33;21.45;;;5.30;;
48859;SDS011;34679;51.436;-2.518;2023-04-01T04:54:00;17.88;;;6.03;;
48859;SDS011;34679;51.436;-2.518;2023-04-01T04:56:27;24.80;;;6.22;;
48859;SDS011;34679;51.436;-2.518;2023-04-01T04:58:52;25.40;;;5.70;;
48859;SDS011;34679;51.436;-2.518;2023-04-01T05:01:18;15.43;;;6.30;;
48859;SDS011;34679;51.436;-2.518;2023-04-01T05:03:45;19.33;;;5.45;;
48859;SDS011;34679;51.436;-2.518;2023-04-01T05:06:11;19.35;;;5.93;;
48859;SDS011;34679;51.436;-2.518;2023-04-01T05:08:39;25.42;;;6.03;;
48859;SDS011;34679;51.436;-2.518;2023-04-01T05:11:07;18.10;;;6.50;;
48859;SDS011;34679;51.436;-2.518;2023-04-01T05:13:43;21.48;;;6.97;;
48859;SDS011;34679;51.436;-2.518;2023-04-01T05:16:14;21.52;;;6.18;;
48859;SDS011;34679;51.436;-2.518;2023-04-01T05:18:41;27.38;;;6.75;;
48859;SDS011;34679;51.436;-2.518;2023-04-01T05:21:08;17.80;;;6.45;;
48859;SDS011;34679;51.436;-2.518;2023-04-01T05:23:35;21.65;;;6.63;;
48859;SDS011;34679;51.436;-2.518;2023-04-01T05:26:05;20.08;;;7.63;;
48859;SDS011;34679;51.436;-2.518;2023-04-01T05:28:31;25.92;;;7.70;;
48859;SDS011;34679;51.436;-2.518;2023-04-01T05:31:01;24.48;;;7.15;;
48859;SDS011;34679;51.436;-2.518;2023-04-01T05:33:28;26.08;;;7.97;;
48859;SDS011;34679;51.436;-2.518;2023-04-01T05:35:55;16.75;;;6.43;;
48859;SDS011;34679;51.436;-2.518;2023-04-01T05:38:21;13.30;;;6.65;;
48859;SDS011;34679;51.436;-2.518;2023-04-01T05:40:47;20.20;;;6.70;;
48859;SDS011;34679;51.436;-2.518;2023-04-01T05:43:13;18.48;;;8.38;;
48859;SDS011;34679;51.436;-2.518;2023-04-01T05:45:39;15.63;;;7.20;;
48859;SDS011;34679;51.436;-2.518;2023-04-01T05:48:04;16.25;;;7.22;;
48859;SDS011;34679;51.436;-2.518;2023-04-01T05:50:30;18.02;;;7.72;;
48859;SDS011;34679;51.436;-2.518;2023-04-01T05:52:56;17.92;;;7.35;;
48859;SDS011;34679;51.436;-2.518;2023-04-01T05:55:22;20.98;;;7.97;;
48859;SDS011;34679;51.436;-2.518;2023-04-01T05:57:48;16.42;;;7.18;;
48859;SDS011;34679;51.436;-2.518;2023-04-01T06:00:15;15.77;;;6.80;;
48859;SDS011;34679;51.436;-2.518;2023-04-01T06:02:41;24.08;;;7.10;;
48859;SDS011;34679;51.436;-2.518;2023-04-01T06:05:12;24.88;;;6.90;;
48859;SDS011;34679;51.436;-2.518;2023-04-01T06:07:54;25.83;;;8.48;;
48859;SDS011;34679;51.436;-2.518;2023-04-01T06:10:36;19.02;;;6.60;;
48859;SDS011;34679;51.436;-2.518;2023-04-01T06:16:06;20.55;;;6.95;;
48859;SDS011;34679;51.436;-2.518;2023-04-01T06:18:55;21.02;;;7.00;;
48859;SDS011;34679;51.436;-2.518;2023-04-01T06:21:29;22.60;;;6.90;;
48859;SDS011;34679;51.436;-2.518;2023-04-01T06:29:47;22.95;;;7.03;;
48859;SDS011;34679;51.436;-2.518;2023-04-01T06:37:54;18.02;;;7.07;;
48859;SDS011;34679;51.436;-2.518;2023-04-01T06:43:59;22.15;;;6.65;;
48859;SDS011;34679;51.436;-2.518;2023-04-01T06:49:24;20.45;;;6.55;;
48859;SDS011;34679;51.436;-2.518;2023-04-01T06:52:10;16.13;;;6.57;;
48859;SDS011;34679;51.436;-2.518;2023-04-01T06:54:49;12.15;;;5.43;;
48859;SDS011;34679;51.436;-2.518;2023-04-01T06:57:31;18.37;;;4.67;;
48859;SDS011;34679;51.436;-2.518;2023-04-01T07:00:04;17.17;;;5.47;;
48859;SDS011;34679;51.436;-2.518;2023-04-01T07:02:59;16.95;;;4.85;;
48859;SDS011;34679;51.436;-2.518;2023-04-01T07:05:28;13.32;;;5.55;;
48859;SDS011;34679;51.436;-2.518;2023-04-01T07:07:57;26.27;;;6.40;;
48859;SDS011;34679;51.436;-2.518;2023-04-01T07:10:41;18.38;;;6.10;;
48859;SDS011;34679;51.436;-2.518;2023-04-01T07:13:39;14.80;;;6.07;;
48859;SDS011;34679;51.436;-2.518;2023-04-01T07:23:57;20.27;;;6.50;;
48859;SDS011;34679;51.436;-2.518;2023-04-01T07:26:28;15.48;;;5.70;;
48859;SDS011;34679;51.436;-2.518;2023-04-01T07:28:54;18.17;;;6.80;;
48859;SDS011;34679;51.436;-2.518;2023-04-01T07:34:04;18.67;;;6.75;;
48859;SDS011;34679;51.436;-2.518;2023-04-01T07:36:53;17.10;;;5.38;;
48859;SDS011;34679;51.436;-2.518;2023-04-01T07:39:32;17.20;;;4.35;;
48859;SDS011;34679;51.436;-2.518;2023-04-01T07:42:36;9.40;;;3.88;;
48859;SDS011;34679;51.436;-2.518;2023-04-01T07:51:47;7.78;;;3.38;;
48859;SDS011;34679;51.436;-2.518;2023-04-01T07:53:43;11.80;;;3.58;;
48859;SDS011;34679;51.436;-2.518;2023-04-01T07:58:54;9.73;;;3.78;;
48859;SDS011;34679;51.436;-2.518;2023-04-01T08:14:53;8.68;;;3.70;;
48859;SDS011;34679;51.436;-2.518;2023-04-01T08:20:48;9.15;;;2.83;;
48859;SDS011;34679;51.436;-2.518;2023-04-01T08:23:40;13.38;;;2.60;;
48859;SDS011;34679;51.436;-2.518;2023-04-01T08:26:32;7.75;;;2.08;;
48859;SDS011;34679;51.436;-2.518;2023-04-01T08:29:17;15.38;;;2.80;;
48859;SDS011;34679;51.436;-2.518;2023-04-01T08:32:00;5.30;;;2.03;;
48859;SDS011;34679;51.436;-2.518;2023-04-01T08:34:40;2.65;;;1.13;;
48859;SDS011;34679;51.436;-2.518;2023-04-01T08:37:11;2.08;;;0.98;;
48859;SDS011;34679;51.436;-2.518;2023-04-01T08:45:21;1.77;;;0.50;;
48859;SDS011;34679;51.436;-2.518;2023-04-01T08:48:04;1.63;;;0.50;;
48859;SDS011;34679;51.436;-2.518;2023-04-01T08:56:40;2.05;;;0.40;;
48859;SDS011;34679;51.436;-2.518;2023-04-01T09:02:16;2.08;;;0.40;;
48859;SDS011;34679;51.436;-2.518;2023-04-01T09:10:15;2.47;;;0.38;;
48859;SDS011;34679;51.436;-2.518;2023-04-01T09:18:36;1.50;;;0.70;;
48859;SDS011;34679;51.436;-2.518;2023-04-01T09:37:40;0.70;;;0.50;;
48859;SDS011;34679;51.436;-2.518;2023-04-01T09:46:04;1.45;;;0.40;;
48859;SDS011;34679;51.436;-2.518;2023-04-01T09:54:18;0.60;;;0.40;;
48859;SDS011;34679;51.436;-2.518;2023-04-01T10:02:18;1.00;;;0.50;;
48859;SDS011;34679;51.436;-2.518;2023-04-01T10:16:18;2.45;;;2.25;;
48859;SDS011;34679;51.436;-2.518;2023-04-01T10:22:23;4.32;;;3.90;;
48859;SDS011;34679;51.436;-2.518;2023-04-01T10:25:07;4.60;;;4.20;;
48859;SDS011;34679;51.436;-2.518;2023-04-01T10:27:44;3.75;;;3.38;;
48859;SDS011;34679;51.436;-2.518;2023-04-01T10:46:55;3.15;;;2.78;;
48859;SDS011;34679;51.436;-2.518;2023-04-01T10:49:56;4.13;;;3.72;;
48859;SDS011;34679;51.436;-2.518;2023-04-01T11:15:37;4.70;;;4.30;;
48859;SDS011;34679;51.436;-2.518;2023-04-01T11:40:52;5.03;;;4.63;;
48859;SDS011;34679;51.436;-2.518;2023-04-01T11:43:40;5.32;;;4.93;;
48859;SDS011;34679;51.436;-2.518;2023-04-01T11:46:33;6.40;;;5.75;;
48859;SDS011;34679;51.436;-2.518;2023-04-01T11:57:42;8.90;;;7.68;;
48859;SDS011;34679;51.436;-2.518;2023-04-01T12:03:07;9.82;;;8.82;;
48859;SDS011;34679;51.436;-2.518;2023-04-01T12:08:51;11.95;;;9.32;;
48859;SDS011;34679;51.436;-2.518;2023-04-01T12:11:34;13.52;;;10.55;;
48859;SDS011;34679;51.436;-2.518;2023-04-01T12:14:49;10.85;;;9.82;;
48859;SDS011;34679;51.436;-2.518;2023-04-01T12:28:41;10.95;;;9.88;;
48859;SDS011;34679;51.436;-2.518;2023-04-01T12:42:53;11.45;;;10.05;;
48859;SDS011;34679;51.436;-2.518;2023-04-01T12:50:48;8.95;;;8.05;;
48859;SDS011;34679;51.436;-2.518;2023-04-01T12:56:09;9.65;;;8.75;;
48859;SDS011;34679;51.436;-2.518;2023-04-01T13:04:23;9.98;;;8.52;;
48859;SDS011;34679;51.436;-2.518;2023-04-01T13:10:04;10.10;;;8.20;;
48859;SDS011;34679;51.436;-2.518;2023-04-01T13:18:39;7.50;;;6.80;;
48859;SDS011;34679;51.436;-2.518;2023-04-01T13:27:01;7.15;;;4.60;;
48859;SDS011;34679;51.436;-2.518;2023-04-01T13:32:24;7.68;;;4.60;;
48859;SDS011;34679;51.436;-2.518;2023-04-01T13:37:51;7.63;;;5.53;;
48859;SDS011;34679;51.436;-2.518;2023-04-01T13:43:26;7.35;;;5.15;;
48859;SDS011;34679;51.436;-2.518;2023-04-01T13:51:48;6.85;;;4.28;;
48859;SDS011;34679;51.436;-2.518;2023-04-01T14:21:43;5.80;;;4.03;;
48859;SDS011;34679;51.436;-2.518;2023-04-01T14:29:37;3.92;;;3.15;;
48859;SDS011;34679;51.436;-2.518;2023-04-01T14:32:07;3.40;;;3.10;;
48859;SDS011;34679;51.436;-2.518;2023-04-01T14:48:34;4.32;;;2.97;;
48859;SDS011;34679;51.436;-2.518;2023-04-01T14:56:48;3.15;;;2.60;;
48859;SDS011;34679;51.436;-2.518;2023-04-01T15:21:03;3.08;;;2.40;;
48859;SDS011;34679;51.436;-2.518;2023-04-01T15:23:38;8.63;;;2.22;;
48859;SDS011;34679;51.436;-2.518;2023-04-01T15:26:11;3.70;;;2.08;;
48859;SDS011;34679;51.436;-2.518;2023-04-01T15:31:50;5.57;;;2.10;;
48859;SDS011;34679;51.436;-2.518;2023-04-01T15:34:48;4.53;;;2.05;;
48859;SDS011;34679;51.436;-2.518;2023-04-01T15:45:40;3.92;;;2.05;;
48859;SDS011;34679;51.436;-2.518;2023-04-01T15:48:17;2.75;;;1.70;;
48859;SDS011;34679;51.436;-2.518;2023-04-01T15:51:22;4.88;;;1.80;;
48859;SDS011;34679;51.436;-2.518;2023-04-01T15:59:56;1.77;;;1.10;;
48859;SDS011;34679;51.436;-2.518;2023-04-01T16:05:56;1.77;;;1.30;;
48859;SDS011;34679;51.436;-2.518;2023-04-01T16:08:55;3.03;;;1.10;;
48859;SDS011;34679;51.436;-2.518;2023-04-01T16:11:46;1.05;;;0.93;;
48859;SDS011;34679;51.436;-2.518;2023-04-01T16:14:24;1.73;;;1.17;;
48859;SDS011;34679;51.436;-2.518;2023-04-01T16:40:50;1.80;;;0.93;;
48859;SDS011;34679;51.436;-2.518;2023-04-01T16:46:32;1.98;;;1.15;;
48859;SDS011;34679;51.436;-2.518;2023-04-01T16:59:36;2.55;;;1.00;;
48859;SDS011;34679;51.436;-2.518;2023-04-01T17:02:25;5.43;;;1.60;;
48859;SDS011;34679;51.436;-2.518;2023-04-01T17:08:34;4.78;;;1.27;;
48859;SDS011;34679;51.436;-2.518;2023-04-01T17:31:58;2.70;;;0.82;;
48859;SDS011;34679;51.436;-2.518;2023-04-01T17:37:34;1.05;;;0.70;;
48859;SDS011;34679;51.436;-2.518;2023-04-01T17:42:47;1.73;;;0.68;;
48859;SDS011;34679;51.436;-2.518;2023-04-01T17:56:17;1.02;;;0.93;;
48859;SDS011;34679;51.436;-2.518;2023-04-01T17:59:23;1.70;;;0.90;;
48859;SDS011;34679;51.436;-2.518;2023-04-01T18:02:51;1.38;;;0.70;;
48859;SDS011;34679;51.436;-2.518;2023-04-01T18:14:17;4.75;;;0.77;;
48859;SDS011;34679;51.436;-2.518;2023-04-01T18:20:16;1.40;;;0.90;;
48859;SDS011;34679;51.436;-2.518;2023-04-01T18:26:04;8.02;;;2.35;;
48859;SDS011;34679;51.436;-2.518;2023-04-01T18:28:39;2.03;;;1.10;;
48859;SDS011;34679;51.436;-2.518;2023-04-01T18:31:21;2.50;;;1.60;;
48859;SDS011;34679;51.436;-2.518;2023-04-01T18:39:28;2.22;;;2.03;;
48859;SDS011;34679;51.436;-2.518;2023-04-01T18:44:45;1.75;;;1.65;;
48859;SDS011;34679;51.436;-2.518;2023-04-01T18:47:25;3.72;;;1.88;;
48859;SDS011;34679;51.436;-2.518;2023-04-01T18:50:15;3.75;;;1.92;;
48859;SDS011;34679;51.436;-2.518;2023-04-01T18:52:58;5.40;;;1.98;;
48859;SDS011;34679;51.436;-2.518;2023-04-01T18:55:37;2.33;;;1.80;;
48859;SDS011;34679;51.436;-2.518;2023-04-01T18:58:16;4.38;;;2.10;;
48859;SDS011;34679;51.436;-2.518;2023-04-01T19:00:45;6.75;;;2.17;;
48859;SDS011;34679;51.436;-2.518;2023-04-01T19:03:54;2.00;;;1.77;;
48859;SDS011;34679;51.436;-2.518;2023-04-01T19:09:15;4.32;;;2.10;;
48859;SDS011;34679;51.436;-2.518;2023-04-01T19:15:37;3.33;;;1.55;;
48859;SDS011;34679;51.436;-2.518;2023-04-01T19:24:16;1.80;;;1.33;;
48859;SDS011;34679;51.436;-2.518;2023-04-01T19:38:00;2.47;;;1.50;;
48859;SDS011;34679;51.436;-2.518;2023-04-01T19:46:53;2.95;;;1.30;;
48859;SDS011;34679;51.436;-2.518;2023-04-01T19:49:34;2.83;;;1.40;;
48859;SDS011;34679;51.436;-2.518;2023-04-01T19:52:31;1.63;;;1.10;;
48859;SDS011;34679;51.436;-2.518;2023-04-01T19:57:54;2.58;;;1.33;;
48859;SDS011;34679;51.436;-2.518;2023-04-01T20:00:46;1.58;;;0.82;;
48859;SDS011;34679;51.436;-2.518;2023-04-01T20:05:55;1.15;;;0.93;;
48859;SDS011;34679;51.436;-2.518;2023-04-01T20:16:46;4.03;;;0.80;;
48859;SDS011;34679;51.436;-2.518;2023-04-01T20:22:02;2.22;;;1.08;;
48859;SDS011;34679;51.436;-2.518;2023-04-01T20:24:37;1.98;;;0.98;;
48859;SDS011;34679;51.436;-2.518;2023-04-01T20:27:09;2.53;;;1.45;;
48859;SDS011;34679;51.436;-2.518;2023-04-01T20:29:55;1.00;;;0.85;;
48859;SDS011;34679;51.436;-2.518;2023-04-01T20:38:51;1.60;;;1.10;;
48859;SDS011;34679;51.436;-2.518;2023-04-01T20:44:25;1.95;;;1.27;;
48859;SDS011;34679;51.436;-2.518;2023-04-01T20:47:27;2.40;;;1.30;;
48859;SDS011;34679;51.436;-2.518;2023-04-01T21:04:46;1.83;;;1.40;;
48859;SDS011;34679;51.436;-2.518;2023-04-01T21:12:54;3.38;;;1.67;;
48859;SDS011;34679;51.436;-2.518;2023-04-01T21:15:38;2.40;;;1.48;;
48859;SDS011;34679;51.436;-2.518;2023-04-01T21:23:49;1.90;;;1.63;;
48859;SDS011;34679;51.436;-2.518;2023-04-01T21:29:33;2.35;;;1.60;;
48859;SDS011;34679;51.436;-2.518;2023-04-01T21:34:40;3.08;;;1.58;;
48859;SDS011;34679;51.436;-2.518;2023-04-01T21:42:40;1.75;;;1.60;;
48859;SDS011;34679;51.436;-2.518;2023-04-01T21:54:26;4.30;;;1.60;;
48859;SDS011;34679;51.436;-2.518;2023-04-01T21:57:38;2.20;;;1.70;;
48859;SDS011;34679;51.436;-2.518;2023-04-01T22:03:00;1.80;;;1.42;;
48859;SDS011;34679;51.436;-2.518;2023-04-01T22:05:39;1.40;;;1.30;;
48859;SDS011;34679;51.436;-2.518;2023-04-01T22:14:06;1.63;;;1.42;;
48859;SDS011;34679;51.436;-2.518;2023-04-01T22:16:50;3.42;;;1.75;;
48859;SDS011;34679;51.436;-2.518;2023-04-01T22:24:47;2.88;;;1.48;;
48859;SDS011;34679;51.436;-2.518;2023-04-01T22:29:59;3.70;;;2.03;;
48859;SDS011;34679;51.436;-2.518;2023-04-01T22:32:48;3.63;;;1.67;;
48859;SDS011;34679;51.436;-2.518;2023-04-01T22:38:26;4.03;;;1.75;;
48859;SDS011;34679;51.436;-2.518;2023-04-01T22:44:18;6.97;;;1.67;;
48859;SDS011;34679;51.436;-2.518;2023-04-01T22:47:07;3.30;;;1.50;;
48859;SDS011;34679;51.436;-2.518;2023-04-01T22:49:55;2.97;;;1.77;;
48859;SDS011;34679;51.436;-2.518;2023-04-01T22:52:43;2.63;;;1.73;;
48859;SDS011;34679;51.436;-2.518;2023-04-01T22:55:28;2.45;;;1.58;;
48859;SDS011;34679;51.436;-2.518;2023-04-01T22:58:04;2.28;;;1.60;;
48859;SDS011;34679;51.436;-2.518;2023-04-01T23:00:52;4.03;;;1.38;;
48859;SDS011;34679;51.436;-2.518;2023-04-01T23:03:30;3.10;;;1.30;;
48859;SDS011;34679;51.436;-2.518;2023-04-01T23:06:02;1.90;;;1.70;;
48859;SDS011;34679;51.436;-2.518;2023-04-01T23:19:26;2.88;;;1.80;;
48859;SDS011;34679;51.436;-2.518;2023-04-01T23:21:55;4.97;;;2.17;;
48859;SDS011;34679;51.436;-2.518;2023-04-01T23:24:50;2.15;;;1.80;;
48859;SDS011;34679;51.436;-2.518;2023-04-01T23:27:28;4.30;;;1.70;;
48859;SDS011;34679;51.436;-2.518;2023-04-01T23:30:00;2.42;;;1.80;;
48859;SDS011;34679;51.436;-2.518;2023-04-01T23:32:26;2.80;;;2.03;;
48859;SDS011;34679;51.436;-2.518;2023-04-01T23:34:53;3.95;;;2.30;;
48859;SDS011;34679;51.436;-2.518;2023-04-01T23:37:22;4.72;;;2.10;;
48859;SDS011;34679;51.436;-2.518;2023-04-01T23:39:50;6.57;;;2.40;;
48859;SDS011;34679;51.436;-2.518;2023-04-01T23:42:22;3.05;;;2.20;;
48859;SDS011;34679;51.436;-2.518;2023-04-01T23:44:57;6.03;;;2.47;;
48859;SDS011;34679;51.436;-2.518;2023-04-01T23:47:35;3.45;;;2.55;;
48859;SDS011;34679;51.436;-2.518;2023-04-01T23:50:14;3.13;;;2.20;;
48859;SDS011;34679;51.436;-2.518;2023-04-01T23:52:46;4.38;;;2.30;;
48859;SDS011;34679;51.436;-2.518;2023-04-01T23:55:32;2.78;;;2.45;;
